< Typhoon 196706 1967 Season Typhoon 196708 >
Typhoon 196707 (BILLIE)
General InformationTrack Information on Google Maps || NewsDisaster Info.ResourceGoogle EarthGE AnimationAtom FeedGeoJSON
Detalied Best Track (Time Zone = UTC)
Year Month Day Hour Lat. Long. Pressure (hPa) Wind (kt) Class Image Chart
1967 6 29 18 9.1 148.0 1006 0 2 -- Chart
1967 6 30 00 10.0 147.0 1006 0 2 -- Chart
1967 6 30 06 10.6 145.5 1004 0 2 -- Chart
1967 6 30 12 11.0 144.0 1003 0 2 -- Chart
1967 6 30 18 11.4 142.3 1003 0 2 -- Chart
1967 7 1 00 12.0 141.0 1003 0 2 -- Chart
1967 7 1 06 12.4 140.4 1003 0 2 -- Chart
1967 7 1 12 12.9 139.7 1003 0 2 -- Chart
1967 7 1 18 13.3 138.9 1003 0 2 -- Chart
1967 7 2 00 14.0 138.2 1003 0 2 -- Chart
1967 7 2 06 14.6 137.8 1002 0 9 -- Chart
1967 7 2 12 15.1 137.5 1002 0 9 -- Chart
1967 7 2 18 15.7 137.1 1002 0 9 -- Chart
1967 7 3 00 16.1 136.8 1000 0 9 -- Chart
1967 7 3 06 16.4 135.8 996 0 9 -- Chart
1967 7 3 12 16.8 134.8 996 0 9 -- Chart
1967 7 3 18 17.1 133.5 994 0 9 -- Chart
1967 7 4 00 16.7 132.1 994 0 9 -- Chart
1967 7 4 06 16.6 130.7 994 0 9 -- Chart
1967 7 4 12 16.9 129.2 990 0 9 -- Chart
1967 7 4 18 17.0 128.1 990 0 9 -- Chart
1967 7 5 00 17.5 128.0 988 0 9 -- Chart
1967 7 5 06 18.4 127.8 988 0 9 -- Chart
1967 7 5 12 19.4 127.5 986 0 9 -- Chart
1967 7 5 18 20.3 127.0 982 0 9 -- Chart
1967 7 6 00 21.0 126.4 980 0 9 -- Chart
1967 7 6 06 22.0 126.3 980 0 9 -- Chart
1967 7 6 12 22.8 126.2 980 0 9 -- Chart
1967 7 6 18 23.2 125.8 980 0 9 -- Chart
1967 7 7 00 24.4 125.6 985 0 9 -- Chart
1967 7 7 06 25.4 125.6 994 0 9 -- Chart
1967 7 7 12 26.0 125.5 994 0 9 -- Chart
1967 7 7 18 26.7 125.3 996 0 9 -- Chart
1967 7 8 00 27.4 125.6 996 0 2 -- Chart
1967 7 8 06 28.5 126.0 996 0 2 -- Chart
1967 7 8 12 29.6 126.5 996 0 2 -- Chart
1967 7 8 18 30.6 127.1 996 0 2 -- Chart
1967 7 9 00 31.8 128.0 994 0 6 -- Chart
1967 7 9 06 34.0 130.9 1000 0 6 -- Chart
1967 7 9 12 34.9 135.1 1003 0 6 -- Chart
1967 7 9 18 35.5 138.2 1003 0 6 -- Chart
1967 7 10 00 37.6 144.5 1002 0 6 -- Chart
1967 7 10 06 38.3 146.6 1002 0 6 -- Chart
1967 7 10 12 39.0 149.0 1004 0 6 -- Chart
1967 7 10 18 39.5 151.0 1006 0 6 -- Chart
1967 7 11 00 40.0 153.0 1004 0 6 -- Chart
1967 7 11 06 40.5 155.0 1004 0 6 -- Chart
1967 7 11 12 41.2 157.5 1006 0 6 -- Chart
1967 7 11 18 42.5 160.0 1004 0 6 -- Chart
1967 7 12 00 43.5 162.0 1006 0 6 -- Chart
1967 7 12 06 44.6 164.0 1008 0 6 -- Chart
1967 7 12 12 46.0 167.0 1010 0 6 -- Chart
1967 7 12 18 48.0 170.0 1010 0 6 -- Chart
Japan Meteorological Agency Best Track Data | Correction Date : 1989-06-01
< Typhoon 196706 1967 Season Typhoon 196708 >

Help